Flugplatz Arnstadt-Alkersleben

Für EDBA sind keine METAR/TAF Berichte vorhanden.
Es werden die Flugwettermeldungen vom Flugplatz Erfurt in 17 km Entfernung angezeigt.

Bericht für EDDE

vom 10.04. um 11:50 UTC

Wind 4 kt aus 30°

Sichtweite 10 km oder mehr

aufgelockert bewölkt in 700 ft

aufgebrochene Bewölkung in 1000 ft

Temperatur 7.0°C

Taupunkt 5.0°C

Luftfeuchtigkeit 87%

Luftdruck 1015 hPa

EDDE 101150Z 03004KT 360V060 9999 SCT007 BKN010 07/05 Q1015 TEMPO SCT012

Prognose für EDDE

vom 10.04. um 11:00 UTC

Zwischen 12:00 UTC und 14:00 UTC

Wind 4 kt aus 60°

Sichtweite 10 km oder mehr

aufgelockert bewölkt in 4000 ft


Zwischen 12:00 UTC und 23:00 UTC zeitweise mit einer Wahrscheinlichkeit von 30%

Sichtweite 4000 m

schwacher Regen

schwacher Sprühregen

aufgebrochene Bewölkung in 1000 ft


Zwischen 14:00 und 16:00 UTC übergehend zu

Wind 6 kt aus 140°

Sichtweite 10 km oder mehr

aufgelockert bewölkt in 4000 ft


Zwischen 20:00 und 22:00 UTC übergehend zu

Wind 9 kt aus 200°

Sichtweite 10 km oder mehr

aufgelockert bewölkt in 4000 ft

TAF EDDE 101100Z 1012/1112 06004KT 9999 SCT040 PROB30 TEMPO 1012/1023 4000 -RADZ BKN010 BECMG 1014/1016 14006KT BECMG 1020/1022 20009KT
Impressum